createdAt,value
2018-12-12T00:01:39.787Z,21.33
2018-12-12T00:04:07.893Z,21.67
2018-12-12T00:06:35.852Z,22.77
2018-12-12T00:09:05.216Z,21.50
2018-12-12T00:11:33.481Z,22.80
2018-12-12T00:14:01.517Z,24.23
2018-12-12T00:16:29.417Z,27.13
2018-12-12T00:18:57.668Z,28.17
2018-12-12T00:21:25.514Z,34.00
2018-12-12T00:23:53.424Z,31.27
2018-12-12T00:26:21.482Z,27.70
2018-12-12T00:28:49.568Z,28.53
2018-12-12T00:31:17.409Z,27.70
2018-12-12T00:33:45.715Z,30.73
2018-12-12T00:36:13.643Z,29.83
2018-12-12T00:38:41.613Z,33.17
2018-12-12T00:41:10.679Z,33.93
2018-12-12T00:43:38.578Z,32.33
2018-12-12T00:46:06.860Z,33.50
2018-12-12T00:48:34.940Z,30.17
2018-12-12T00:51:03.007Z,27.77
2018-12-12T00:53:31.064Z,31.93
2018-12-12T00:55:58.950Z,33.13
2018-12-12T00:58:26.853Z,31.97
2018-12-12T01:00:54.999Z,33.23
2018-12-12T01:03:23.239Z,31.60
2018-12-12T01:05:51.121Z,29.60
2018-12-12T01:08:19.386Z,30.13
2018-12-12T01:10:49.412Z,32.70
2018-12-12T01:13:17.571Z,32.97
2018-12-12T01:15:45.865Z,36.43
2018-12-12T01:18:13.712Z,37.60
2018-12-12T01:20:41.578Z,34.83
2018-12-12T01:23:09.448Z,35.60
2018-12-12T01:25:37.333Z,37.30
2018-12-12T01:28:05.628Z,36.47
2018-12-12T01:30:33.887Z,36.47
2018-12-12T01:33:01.964Z,35.80
2018-12-12T01:35:30.197Z,32.60
2018-12-12T01:37:58.034Z,33.80
2018-12-12T01:40:25.923Z,40.70
2018-12-12T01:42:54.194Z,43.33
2018-12-12T01:45:22.268Z,42.93
2018-12-12T01:47:50.366Z,39.80
2018-12-12T01:50:18.434Z,41.63
2018-12-12T01:52:46.473Z,39.70
2018-12-12T01:55:14.393Z,41.03
2018-12-12T01:57:42.597Z,38.67
2018-12-12T02:00:10.546Z,39.47
2018-12-12T02:02:38.605Z,37.20
2018-12-12T02:05:06.870Z,38.07
2018-12-12T02:07:35.116Z,35.63
2018-12-12T02:10:03.604Z,35.33
2018-12-12T02:12:31.481Z,37.33
2018-12-12T02:14:59.521Z,36.37
2018-12-12T02:17:27.627Z,37.77
2018-12-12T02:19:55.435Z,39.90
2018-12-12T02:22:23.535Z,43.63
2018-12-12T02:24:51.437Z,40.20
2018-12-12T02:27:19.480Z,38.57
2018-12-12T02:29:47.323Z,38.17
2018-12-12T02:32:15.453Z,38.33
2018-12-12T02:34:43.482Z,40.37
2018-12-12T02:37:12.616Z,36.33
2018-12-12T02:39:40.729Z,36.43
2018-12-12T02:42:08.610Z,39.73
2018-12-12T02:44:36.641Z,36.37
2018-12-12T02:47:04.895Z,36.50
2018-12-12T02:49:33.131Z,36.43
2018-12-12T02:52:00.986Z,41.90
2018-12-12T02:54:29.082Z,39.10
2018-12-12T02:56:56.906Z,38.67
2018-12-12T02:59:25.245Z,40.73
2018-12-12T03:01:53.519Z,41.80
2018-12-12T03:04:21.589Z,41.83
2018-12-12T03:06:49.842Z,48.50
2018-12-12T03:09:17.921Z,49.80
2018-12-12T03:11:46.004Z,52.17
2018-12-12T03:14:13.915Z,54.07
2018-12-12T03:16:41.776Z,53.57
2018-12-12T03:19:09.742Z,57.97
2018-12-12T03:21:37.598Z,53.17
2018-12-12T03:24:05.429Z,56.53
2018-12-12T03:26:33.355Z,58.77
2018-12-12T03:29:03.488Z,57.87
2018-12-12T03:31:31.557Z,61.93
2018-12-12T03:33:59.649Z,59.90
2018-12-12T03:36:27.520Z,58.20
2018-12-12T03:38:57.439Z,57.40
2018-12-12T03:41:25.358Z,59.60
2018-12-12T03:43:58.494Z,61.27
2018-12-12T03:46:27.586Z,59.30
2018-12-12T03:48:55.618Z,59.13
2018-12-12T03:51:23.922Z,57.40
2018-12-12T03:53:52.014Z,57.83
2018-12-12T03:56:20.037Z,50.40
2018-12-12T03:58:48.155Z,50.53
2018-12-12T04:01:16.198Z,55.07
2018-12-12T04:03:44.041Z,51.40
2018-12-12T04:06:11.997Z,53.60
2018-12-12T04:08:40.000Z,55.70
2018-12-12T04:11:08.103Z,56.37
2018-12-12T04:13:36.366Z,54.10
2018-12-12T04:16:04.438Z,53.90
2018-12-12T04:18:32.494Z,52.93
2018-12-12T04:21:00.545Z,55.30
2018-12-12T04:23:28.647Z,56.50
2018-12-12T04:25:56.883Z,54.57
2018-12-12T04:28:24.739Z,52.60
2018-12-12T04:30:52.843Z,60.10
2018-12-12T04:33:21.094Z,47.13
2018-12-12T04:35:49.050Z,53.40
2018-12-12T04:38:16.865Z,52.53
2018-12-12T04:40:44.902Z,49.47
2018-12-12T04:43:13.181Z,47.30
2018-12-12T04:45:41.317Z,46.47
2018-12-12T04:48:09.320Z,49.80
2018-12-12T04:50:37.218Z,48.63
2018-12-12T04:53:05.436Z,51.13
2018-12-12T04:55:33.315Z,52.17
2018-12-12T04:58:01.632Z,52.43
2018-12-12T05:00:29.925Z,54.17
2018-12-12T05:02:59.132Z,58.13
2018-12-12T05:05:27.239Z,57.67
2018-12-12T05:07:55.149Z,60.17
2018-12-12T05:10:23.177Z,53.70
2018-12-12T05:12:55.149Z,57.97
2018-12-12T05:15:23.122Z,57.17
2018-12-12T05:17:51.503Z,63.97
2018-12-12T05:20:19.375Z,61.03
2018-12-12T05:22:47.655Z,62.77
2018-12-12T05:25:15.694Z,57.93
2018-12-12T05:27:43.917Z,54.23
2018-12-12T05:30:11.840Z,53.73
2018-12-12T05:32:40.147Z,50.43
2018-12-12T05:35:07.989Z,49.03
2018-12-12T05:37:37.286Z,49.80
2018-12-12T05:40:05.404Z,50.67
2018-12-12T05:42:33.391Z,53.27
2018-12-12T05:45:01.501Z,49.83
2018-12-12T05:47:29.578Z,50.03
2018-12-12T05:49:57.406Z,48.80
2018-12-12T05:52:25.495Z,48.27
2018-12-12T05:54:53.363Z,50.07
2018-12-12T05:57:21.260Z,53.47
2018-12-12T05:59:49.602Z,49.33
2018-12-12T06:02:17.775Z,48.43
2018-12-12T06:04:46.089Z,51.13
2018-12-12T06:07:14.097Z,47.93
2018-12-12T06:09:41.994Z,46.00
2018-12-12T06:12:10.054Z,45.30
2018-12-12T06:14:38.010Z,41.30
2018-12-12T06:17:05.907Z,41.83
2018-12-12T06:19:33.738Z,42.83
2018-12-12T06:22:01.760Z,43.63
2018-12-12T06:24:29.782Z,45.37
2018-12-12T06:26:57.685Z,42.00
2018-12-12T06:29:25.602Z,42.27
2018-12-12T06:31:53.626Z,39.73
2018-12-12T06:34:21.466Z,39.37
2018-12-12T06:36:49.458Z,39.93
2018-12-12T06:39:17.425Z,42.43
2018-12-12T06:41:45.459Z,41.47
2018-12-12T06:44:13.747Z,39.43
2018-12-12T06:46:41.649Z,86.07
2018-12-12T06:49:09.708Z,121.25
2018-12-12T06:51:37.658Z,74.43
2018-12-12T06:54:05.563Z,62.03
2018-12-12T06:56:39.551Z,45.70
2018-12-12T06:59:07.628Z,43.20
2018-12-12T07:01:35.814Z,62.57
2018-12-12T07:04:04.162Z,43.17
2018-12-12T07:06:42.438Z,43.57
2018-12-12T07:09:10.324Z,46.07
2018-12-12T07:12:05.159Z,42.97
2018-12-12T07:14:32.982Z,37.33
2018-12-12T07:17:05.265Z,35.30
2018-12-12T07:19:33.120Z,36.57
2018-12-12T07:22:10.191Z,39.17
2018-12-12T07:24:38.014Z,39.77
2018-12-12T07:27:13.320Z,40.00
2018-12-12T07:29:41.171Z,40.27
2018-12-12T07:32:11.265Z,39.20
2018-12-12T07:34:39.122Z,38.87
2018-12-12T07:37:12.093Z,39.90
2018-12-12T07:39:40.010Z,43.27
2018-12-12T07:42:08.078Z,45.60
2018-12-12T07:44:40.431Z,45.97
2018-12-12T07:47:08.478Z,44.50
2018-12-12T07:49:47.438Z,49.00
2018-12-12T07:52:15.760Z,48.87
2018-12-12T07:54:53.644Z,48.23
2018-12-12T07:57:21.665Z,55.43
2018-12-12T07:59:51.829Z,55.40
2018-12-12T08:02:21.533Z,51.90
2018-12-12T08:04:50.629Z,56.20
2018-12-12T08:07:19.315Z,61.33
2018-12-12T08:09:47.328Z,59.70
2018-12-12T08:12:15.180Z,54.33
2018-12-12T08:14:50.460Z,54.23
2018-12-12T08:17:18.348Z,54.60
2018-12-12T08:20:04.765Z,57.83
2018-12-12T08:22:32.662Z,55.83
2018-12-12T08:25:02.806Z,61.83
2018-12-12T08:27:30.707Z,66.27
2018-12-12T08:30:01.249Z,68.90
2018-12-12T08:32:29.465Z,69.63
2018-12-12T08:35:04.721Z,65.37
2018-12-12T08:37:33.014Z,69.90
2018-12-12T08:40:12.631Z,71.07
2018-12-12T08:42:40.571Z,71.00
2018-12-12T08:45:08.486Z,80.30
2018-12-12T08:47:37.765Z,79.97
2018-12-12T08:50:06.472Z,82.77
2018-12-12T08:52:34.745Z,87.50
2018-12-12T08:55:02.631Z,87.80
2018-12-12T08:57:37.006Z,88.83
2018-12-12T09:00:05.470Z,92.60
2018-12-12T09:02:36.613Z,94.93
2018-12-12T09:05:05.603Z,98.20
2018-12-12T09:07:58.339Z,105.97
2018-12-12T09:10:26.448Z,97.37
2018-12-12T09:13:02.083Z,100.30
2018-12-12T09:15:29.934Z,102.67
2018-12-12T09:17:59.069Z,96.67
2018-12-12T09:20:26.978Z,101.63
2018-12-12T09:22:58.664Z,114.13
2018-12-12T09:25:27.004Z,109.27
2018-12-12T09:27:59.490Z,123.10
2018-12-12T09:30:27.443Z,126.03
2018-12-12T09:33:00.759Z,124.57
2018-12-12T09:35:28.866Z,129.40
2018-12-12T09:38:00.636Z,125.13
2018-12-12T09:40:28.553Z,119.03
2018-12-12T09:42:56.455Z,109.90
2018-12-12T09:45:56.931Z,109.80
2018-12-12T09:48:25.052Z,107.00
2018-12-12T09:51:06.983Z,99.27
2018-12-12T09:53:32.242Z,102.37
2018-12-12T09:56:23.675Z,95.77
2018-12-12T09:58:51.737Z,90.07
2018-12-12T10:04:54.050Z,81.43
2018-12-12T10:07:21.909Z,78.50
2018-12-12T10:13:00.045Z,75.00
2018-12-12T10:15:38.696Z,65.23
2018-12-12T10:18:06.530Z,63.53
2018-12-12T10:20:34.693Z,59.20
2018-12-12T10:23:02.874Z,61.50
2018-12-12T10:25:40.846Z,55.30
2018-12-12T10:28:08.946Z,54.27
2018-12-12T10:30:50.850Z,47.70
2018-12-12T10:33:19.013Z,40.37
2018-12-12T10:35:59.381Z,38.67
2018-12-12T10:38:27.442Z,38.27
2018-12-12T10:40:57.514Z,35.83
2018-12-12T10:43:25.632Z,37.97
2018-12-12T10:45:53.684Z,33.60
2018-12-12T10:48:21.801Z,34.73
2018-12-12T10:50:50.008Z,31.10
2018-12-12T10:53:19.112Z,28.93
2018-12-12T10:55:47.170Z,27.93
2018-12-12T10:58:19.837Z,26.50
2018-12-12T11:00:53.486Z,23.60
2018-12-12T11:03:34.918Z,19.90
2018-12-12T11:06:03.454Z,20.20
2018-12-12T11:08:36.173Z,18.97
2018-12-12T11:11:04.095Z,19.90
2018-12-12T11:13:34.222Z,18.43
2018-12-12T11:16:02.496Z,18.83
2018-12-12T11:18:34.206Z,19.03
2018-12-12T11:21:02.262Z,18.03
2018-12-12T11:23:32.240Z,17.70
2018-12-12T11:26:00.334Z,18.97
2018-12-12T11:28:29.426Z,18.67
2018-12-12T11:30:57.431Z,18.23
2018-12-12T11:33:25.515Z,17.37
2018-12-12T11:35:53.327Z,17.30
2018-12-12T11:38:21.397Z,18.03
2018-12-12T11:40:49.712Z,17.27
2018-12-12T11:43:18.030Z,16.33
2018-12-12T11:45:48.319Z,15.30
2018-12-12T11:48:16.165Z,17.23
2018-12-12T11:50:44.485Z,14.93
2018-12-12T11:53:12.533Z,14.27
2018-12-12T11:55:41.592Z,11.70
2018-12-12T11:58:09.655Z,12.67
2018-12-12T12:00:38.594Z,10.80
2018-12-12T12:03:06.639Z,12.90
2018-12-12T12:05:35.625Z,9.90
2018-12-12T12:08:03.599Z,10.53
2018-12-12T12:10:32.002Z,12.50
2018-12-12T12:13:00.187Z,12.83
2018-12-12T12:15:28.114Z,12.90
2018-12-12T12:17:55.982Z,12.17
2018-12-12T12:20:23.938Z,9.70
2018-12-12T12:22:53.475Z,11.60
2018-12-12T12:25:21.439Z,11.40
2018-12-12T12:27:49.346Z,10.13
2018-12-12T12:30:17.259Z,9.57
2018-12-12T12:32:45.130Z,10.87
2018-12-12T12:35:17.499Z,11.17
2018-12-12T12:37:45.319Z,8.93
2018-12-12T12:40:17.113Z,8.70
2018-12-12T12:42:53.680Z,9.93
2018-12-12T12:45:21.535Z,10.83
2018-12-12T12:47:50.650Z,10.63
2018-12-12T12:50:18.547Z,9.00
2018-12-12T12:52:47.514Z,8.00
2018-12-12T12:55:15.421Z,9.23
2018-12-12T12:57:44.389Z,8.57
2018-12-12T13:00:12.319Z,7.93
2018-12-12T13:02:40.208Z,6.57
2018-12-12T13:05:08.096Z,8.00
2018-12-12T13:07:36.060Z,5.77
2018-12-12T13:10:04.175Z,6.20
2018-12-12T13:12:39.255Z,6.13
2018-12-12T13:15:07.263Z,7.13
2018-12-12T13:17:35.303Z,6.43
2018-12-12T13:20:03.391Z,6.97
2018-12-12T13:22:31.321Z,7.10
2018-12-12T13:24:59.169Z,6.70
2018-12-12T13:27:27.118Z,6.67
2018-12-12T13:29:55.043Z,8.30
2018-12-12T13:32:28.803Z,7.00
2018-12-12T13:34:56.714Z,7.50
2018-12-12T13:37:29.942Z,7.33
2018-12-12T13:39:58.343Z,8.50
2018-12-12T13:42:27.921Z,7.80
2018-12-12T13:44:56.255Z,9.33
2018-12-12T13:47:24.340Z,9.60
2018-12-12T13:49:52.251Z,11.53
2018-12-12T13:52:24.536Z,10.43
2018-12-12T13:54:52.409Z,10.37
2018-12-12T13:57:20.396Z,10.83
2018-12-12T13:59:48.294Z,15.27
2018-12-12T14:02:29.358Z,16.90
2018-12-12T14:04:57.205Z,13.97
2018-12-12T14:07:25.090Z,15.47
2018-12-12T14:09:52.980Z,14.60
2018-12-12T14:12:35.151Z,17.33
2018-12-12T14:15:03.459Z,15.67
2018-12-12T14:17:31.431Z,16.67
2018-12-12T14:19:59.299Z,12.97
2018-12-12T14:22:31.367Z,16.03
2018-12-12T14:24:59.295Z,13.67
2018-12-12T14:27:31.738Z,15.43
2018-12-12T14:29:59.601Z,15.97
2018-12-12T14:32:27.626Z,13.07
2018-12-12T14:34:55.706Z,13.90
2018-12-12T14:37:23.887Z,15.73
2018-12-12T14:39:51.785Z,12.93
2018-12-12T14:42:20.831Z,11.80
2018-12-12T14:44:48.829Z,10.23
2018-12-12T14:47:16.787Z,8.90
2018-12-12T14:49:44.758Z,7.57
2018-12-12T14:52:12.610Z,8.33
2018-12-12T14:54:40.530Z,6.90
2018-12-12T14:57:08.401Z,3.87
2018-12-12T14:59:36.287Z,3.10
2018-12-12T15:02:04.689Z,1.83
2018-12-12T15:04:36.082Z,3.37
2018-12-12T15:07:04.195Z,3.07
2018-12-12T15:09:36.948Z,3.87
2018-12-12T15:12:04.982Z,2.90
2018-12-12T15:14:34.274Z,6.23
2018-12-12T15:17:02.110Z,2.93
2018-12-12T15:19:30.037Z,3.60
2018-12-12T15:21:58.317Z,3.40
2018-12-12T15:24:26.362Z,4.40
2018-12-12T15:26:54.260Z,5.03
2018-12-12T15:29:22.394Z,5.47
2018-12-12T15:31:50.249Z,6.13
2018-12-12T15:34:18.251Z,6.97
2018-12-12T15:36:46.137Z,6.87
2018-12-12T15:39:14.122Z,6.17
2018-12-12T15:41:41.968Z,7.00
2018-12-12T15:44:09.788Z,7.23
2018-12-12T15:46:37.772Z,7.17
2018-12-12T15:49:05.642Z,7.80
2018-12-12T15:51:33.596Z,7.97
2018-12-12T15:54:01.453Z,8.27
2018-12-12T15:56:29.389Z,8.77
2018-12-12T15:59:09.254Z,9.13
2018-12-12T16:01:37.131Z,8.53
2018-12-12T16:04:06.353Z,9.70
2018-12-12T16:06:34.655Z,8.87
2018-12-12T16:09:04.121Z,9.27
2018-12-12T16:11:31.977Z,10.13
2018-12-12T16:14:02.526Z,10.47
2018-12-12T16:16:30.624Z,10.47
2018-12-12T16:19:03.009Z,10.33
2018-12-12T16:21:31.266Z,11.73
2018-12-12T16:24:05.784Z,11.50
2018-12-12T16:26:34.170Z,12.00
2018-12-12T16:29:02.588Z,12.63
2018-12-12T16:31:30.713Z,12.30
2018-12-12T16:33:58.761Z,11.30
2018-12-12T16:36:27.006Z,12.47
2018-12-12T16:38:54.926Z,12.80
2018-12-12T16:41:22.943Z,11.97
2018-12-12T16:43:50.842Z,12.13
2018-12-12T16:46:19.122Z,13.40
2018-12-12T16:48:47.227Z,14.20
2018-12-12T16:51:16.458Z,13.77
2018-12-12T16:53:44.561Z,13.90
2018-12-12T16:56:13.061Z,15.07
2018-12-12T16:58:41.299Z,14.33
2018-12-12T17:01:09.414Z,14.60
2018-12-12T17:03:37.316Z,22.42
2018-12-12T17:06:05.208Z,15.43
2018-12-12T17:08:33.093Z,15.87
2018-12-12T17:11:01.049Z,14.77
2018-12-12T17:13:28.964Z,15.97
2018-12-12T17:15:56.866Z,14.47
2018-12-12T17:18:24.842Z,17.03
2018-12-12T17:20:55.309Z,16.60
2018-12-12T17:23:23.204Z,18.20
2018-12-12T17:25:51.210Z,17.90
2018-12-12T17:28:19.937Z,18.70
2018-12-12T17:30:47.866Z,19.57
2018-12-12T17:33:15.750Z,18.27
2018-12-12T17:35:43.815Z,20.00
2018-12-12T17:38:11.661Z,18.20
2018-12-12T17:40:39.779Z,22.30
2018-12-12T17:43:09.187Z,22.27
2018-12-12T17:45:37.046Z,22.77
2018-12-12T17:48:05.005Z,23.67
2018-12-12T17:50:33.038Z,24.00
2018-12-12T17:53:00.965Z,23.13
2018-12-12T17:55:28.796Z,24.47
2018-12-12T17:57:56.709Z,25.17
2018-12-12T18:00:24.668Z,25.20
2018-12-12T18:02:52.657Z,26.63
2018-12-12T18:05:20.516Z,25.43
2018-12-12T18:07:48.412Z,26.50
2018-12-12T18:10:17.365Z,28.93
2018-12-12T18:12:45.287Z,27.87
2018-12-12T18:15:13.192Z,28.50
2018-12-12T18:17:41.115Z,28.53
2018-12-12T18:20:08.978Z,27.83
2018-12-12T18:22:36.856Z,27.93
2018-12-12T18:25:04.993Z,30.73
2018-12-12T18:27:33.044Z,29.20
2018-12-12T18:30:00.884Z,28.40
2018-12-12T18:32:29.789Z,29.80
2018-12-12T18:34:57.680Z,30.90
2018-12-12T18:37:25.951Z,30.10
2018-12-12T18:39:54.039Z,28.97
2018-12-12T18:42:23.329Z,31.30
2018-12-12T18:44:51.593Z,32.77
2018-12-12T18:47:19.516Z,31.57
2018-12-12T18:49:48.877Z,33.13
2018-12-12T18:52:16.745Z,33.87
2018-12-12T18:54:44.954Z,34.20
2018-12-12T18:57:12.970Z,32.27
2018-12-12T18:59:40.831Z,34.23
2018-12-12T19:02:08.896Z,31.70
2018-12-12T19:04:37.219Z,31.50
2018-12-12T19:07:05.788Z,33.20
2018-12-12T19:09:33.935Z,34.00
2018-12-12T19:12:02.025Z,33.80
2018-12-12T19:14:30.852Z,36.03
2018-12-12T19:16:58.772Z,34.70
2018-12-12T19:19:28.083Z,37.07
2018-12-12T19:21:55.913Z,39.97
2018-12-12T19:24:24.003Z,43.13
2018-12-12T19:26:52.065Z,45.83
2018-12-12T19:29:20.347Z,44.40
2018-12-12T19:31:48.242Z,50.03
2018-12-12T19:34:16.561Z,45.83
2018-12-12T19:36:45.105Z,47.80
2018-12-12T19:39:14.510Z,45.47
2018-12-12T19:41:42.575Z,52.93
2018-12-12T19:44:10.439Z,51.00
2018-12-12T19:46:38.651Z,51.40
2018-12-12T19:49:06.957Z,64.50
2018-12-12T19:51:34.834Z,64.07
2018-12-12T19:54:02.975Z,69.47
2018-12-12T19:56:30.961Z,60.67
2018-12-12T19:58:59.994Z,64.70
2018-12-12T20:01:28.364Z,61.03
2018-12-12T20:03:57.432Z,65.63
2018-12-12T20:06:25.441Z,60.20
2018-12-12T20:08:57.069Z,54.03
2018-12-12T20:11:25.359Z,54.03
2018-12-12T20:13:56.658Z,54.03
2018-12-12T20:16:24.529Z,60.77
2018-12-12T20:18:52.811Z,58.60
2018-12-12T20:21:20.912Z,54.93
2018-12-12T20:23:57.585Z,53.23
2018-12-12T20:26:26.784Z,52.70
2018-12-12T20:29:02.259Z,52.67
2018-12-12T20:31:30.295Z,51.17
2018-12-12T20:34:11.642Z,50.33
2018-12-12T20:36:39.706Z,50.10
2018-12-12T20:39:42.754Z,50.77
2018-12-12T20:42:10.722Z,47.30
2018-12-12T20:44:39.065Z,36.83
2018-12-12T20:47:06.918Z,44.07
2018-12-12T20:49:38.754Z,38.50
2018-12-12T20:52:06.681Z,36.27
2018-12-12T20:54:34.799Z,33.70
2018-12-12T20:57:02.811Z,37.07
2018-12-12T20:59:35.572Z,29.90
2018-12-12T21:02:03.683Z,30.07
2018-12-12T21:04:32.752Z,26.57
2018-12-12T21:07:00.650Z,29.87
2018-12-12T21:09:28.867Z,25.37
2018-12-12T21:11:56.962Z,22.73
2018-12-12T21:14:36.734Z,24.53
2018-12-12T21:17:05.115Z,21.87
2018-12-12T21:19:45.937Z,21.47
2018-12-12T21:22:13.805Z,20.63
2018-12-12T21:24:43.711Z,22.73
2018-12-12T21:27:11.588Z,20.10
2018-12-12T21:29:49.228Z,17.70
2018-12-12T21:32:18.798Z,18.47
2018-12-12T21:34:49.075Z,18.00
2018-12-12T21:37:16.950Z,19.10
2018-12-12T21:39:45.234Z,18.37
2018-12-12T21:42:13.166Z,14.53
2018-12-12T21:44:41.508Z,16.80
2018-12-12T21:47:10.190Z,11.57
2018-12-12T21:50:16.879Z,13.47
2018-12-12T21:52:44.836Z,15.97
2018-12-12T21:55:12.848Z,15.60
2018-12-12T21:57:41.092Z,12.97
2018-12-12T22:00:15.017Z,13.53
2018-12-12T22:02:44.123Z,17.07
2018-12-12T22:05:12.291Z,15.90
2018-12-12T22:07:40.130Z,15.33
2018-12-12T22:10:08.218Z,17.13
2018-12-12T22:12:36.039Z,12.90
2018-12-12T22:15:20.975Z,13.67
2018-12-12T22:17:49.068Z,15.43
2018-12-12T22:20:19.225Z,15.53
2018-12-12T22:22:47.291Z,13.30
2018-12-12T22:25:19.822Z,13.67
2018-12-12T22:27:47.664Z,16.00
2018-12-12T22:30:20.643Z,13.87
2018-12-12T22:32:48.780Z,15.63
2018-12-12T22:35:17.010Z,17.00
2018-12-12T22:37:44.933Z,14.47
2018-12-12T22:40:12.978Z,15.37
2018-12-12T22:42:41.087Z,15.47
2018-12-12T22:45:09.321Z,10.90
2018-12-12T22:47:37.350Z,17.13
2018-12-12T22:50:05.425Z,14.87
2018-12-12T22:52:39.438Z,10.30
2018-12-12T22:55:07.543Z,14.57
2018-12-12T22:57:35.581Z,14.47
2018-12-12T23:00:03.954Z,15.83
2018-12-12T23:02:36.669Z,13.90
2018-12-12T23:05:04.703Z,15.67
2018-12-12T23:07:34.615Z,15.93
2018-12-12T23:10:02.843Z,15.30
2018-12-12T23:12:33.024Z,15.97
2018-12-12T23:15:00.900Z,15.50
2018-12-12T23:17:30.183Z,12.93
2018-12-12T23:19:58.003Z,16.27
2018-12-12T23:22:31.849Z,12.63
2018-12-12T23:24:59.741Z,12.87
2018-12-12T23:27:32.488Z,12.17
2018-12-12T23:30:00.598Z,15.27
2018-12-12T23:32:33.362Z,13.33
2018-12-12T23:35:01.172Z,14.13
2018-12-12T23:37:37.002Z,16.53
2018-12-12T23:40:05.156Z,17.07
2018-12-12T23:42:35.234Z,16.57
2018-12-12T23:45:11.283Z,16.33
2018-12-12T23:47:39.196Z,16.27
2018-12-12T23:50:10.974Z,15.33
2018-12-12T23:52:38.823Z,13.70
2018-12-12T23:55:19.579Z,17.67
2018-12-12T23:57:47.425Z,12.97
